Time;durP1;ratioP1;P1;durP2;ratioP2;P2;SDS_P1;SDS_P2;PMS_P1;PMS_P2;Temp;Humidity;BMP_temperature;BMP_pressure;BME280_temperature;BME280_humidity;BME280_pressure;Samples;Min_cycle;Max_cycle;Signal;HPM_P1;HPM_P2
2023/05/29 00:02:25;;;;;;;;;;;;;;;;;;4964984;28;19918;-75
2023/05/29 00:05:12;;;;;;;;;;;;;;;;;;4959392;28;19930;-74
2023/05/29 00:07:59;;;;;;;;;;;;;;;;;;4962787;28;20399;-75
2023/05/29 00:10:45;;;;;;;;;;;;;;;;;;4964719;28;19926;-75
2023/05/29 00:13:32;;;;;;;;;;;;;;;;;;4945562;28;19918;-76
2023/05/29 00:16:19;;;;;;;;;;;;;;;;;;4964933;28;20738;-75
2023/05/29 00:19:05;;;;;;;;;;;;;;;;;;4967352;28;19922;-75
2023/05/29 00:21:52;;;;;;;;;;;;;;;;;;4953872;28;21608;-76
2023/05/29 00:24:38;;;;;;;;;;;;;;;;;;4953192;28;19933;-75
2023/05/29 00:27:25;;;;;;;;;;;;;;;;;;4946962;28;19922;-75
2023/05/29 00:30:12;;;;;;;;;;;;;;;;;;4954604;28;19964;-76
2023/05/29 00:32:58;;;;;;;;;;;;;;;;;;4955316;28;19933;-76
2023/05/29 00:35:45;;;;;;;;;;;;;;;;;;4951713;28;19922;-76
2023/05/29 00:38:32;;;;;;;;;;;;;;;;;;4955826;28;19914;-75
2023/05/29 00:41:18;;;;;;;;;;;;;;;;;;4955626;28;19922;-76
2023/05/29 00:44:05;;;;;;;;;;;;;;;;;;4963604;28;20502;-77
2023/05/29 00:46:52;;;;;;;;;;;;;;;;;;4958373;28;19919;-75
2023/05/29 00:49:39;;;;;;;;;;;;;;;;;;4963589;28;19926;-75
2023/05/29 00:52:25;;;;;;;;;;;;;;;;;;4956398;28;19923;-76
2023/05/29 00:55:13;;;;;;;;;;;;;;;;;;4940388;28;19922;-75
2023/05/29 00:58:00;;;;;;;;;;;;;;;;;;4961688;28;19915;-78
2023/05/29 01:00:46;;;;;;;;;;;;;;;;;;4960638;28;19926;-77
2023/05/29 01:03:33;;;;;;;;;;;;;;;;;;4972020;28;19928;-76
2023/05/29 01:06:20;;;;;;;;;;;;;;;;;;4951044;28;20306;-76
2023/05/29 01:09:07;;;;;;;;;;;;;;;;;;4954938;28;19928;-77
2023/05/29 01:11:53;;;;;;;;;;;;;;;;;;4959077;28;19945;-75
2023/05/29 01:14:40;;;;;;;;;;;;;;;;;;4955806;28;19918;-75
2023/05/29 01:17:26;;;;;;;;;;;;;;;;;;4966207;28;19914;-76
2023/05/29 01:20:13;;;;;;;;;;;;;;;;;;4954332;28;20297;-76
2023/05/29 01:23:00;;;;;;;;;;;;;;;;;;4962554;28;19922;-75
2023/05/29 01:25:47;;;;;;;;;;;;;;;;;;4969585;28;19937;-76
2023/05/29 01:28:33;;;;;;;;;;;;;;;;;;4967340;28;19922;-76
2023/05/29 01:31:20;;;;;;;;;;;;;;;;;;4955410;28;20394;-74
2023/05/29 01:34:06;;;;;;;;;;;;;;;;;;4961133;28;19921;-76
2023/05/29 01:36:53;;;;;;;;;;;;;;;;;;4955149;28;19923;-75
2023/05/29 01:39:39;;;;;;;;;;;;;;;;;;4967900;28;20401;-75
2023/05/29 01:42:26;;;;;;;;;;;;;;;;;;4960526;28;20363;-75
2023/05/29 01:45:12;;;;;;;;;;;;;;;;;;4952053;28;19930;-76
2023/05/29 01:47:59;;;;;;;;;;;;;;;;;;4969250;28;19924;-75
2023/05/29 01:50:46;;;;;;;;;;;;;;;;;;4958678;28;19926;-75
2023/05/29 01:53:32;;;;;;;;;;;;;;;;;;4958280;28;20436;-76
2023/05/29 01:56:19;;;;;;;;;;;;;;;;;;4973291;28;19922;-75
2023/05/29 01:59:05;;;;;;;;;;;;;;;;;;4962704;28;19922;-74
2023/05/29 02:01:52;;;;;;;;;;;;;;;;;;4957480;28;19961;-76
2023/05/29 02:04:38;;;;;;;;;;;;;;;;;;4956924;28;19930;-75
2023/05/29 02:07:25;;;;;;;;;;;;;;;;;;4967956;28;20599;-77
2023/05/29 02:10:11;;;;;;;;;;;;;;;;;;4963543;28;19932;-76
2023/05/29 02:12:58;;;;;;;;;;;;;;;;;;4962836;28;19922;-76
2023/05/29 02:15:44;;;;;;;;;;;;;;;;;;4955165;28;19945;-76
2023/05/29 02:18:31;;;;;;;;;;;;;;;;;;4963687;28;19919;-76
2023/05/29 02:21:17;;;;;;;;;;;;;;;;;;4963630;28;19917;-75
2023/05/29 02:24:04;;;;;;;;;;;;;;;;;;4962729;28;19921;-75
2023/05/29 02:26:51;;;;;;;;;;;;;;;;;;4947784;28;19936;-77
2023/05/29 02:29:38;;;;;;;;;;;;;;;;;;4966236;28;21076;-76
2023/05/29 02:32:25;;;;;;;;;;;;;;;;;;4964396;28;19932;-77
2023/05/29 02:35:14;;;;;;;;;;;;;;;;;;4967678;28;20002;-76
2023/05/29 02:38:01;;;;;;;;;;;;;;;;;;4966114;28;19929;-75
2023/05/29 02:40:47;;;;;;;;;;;;;;;;;;4952205;28;19926;-76
2023/05/29 02:43:34;;;;;;;;;;;;;;;;;;4948280;28;19929;-75
2023/05/29 02:46:21;;;;;;;;;;;;;;;;;;4952490;28;19941;-75
2023/05/29 02:49:08;;;;;;;;;;;;;;;;;;4946280;28;19922;-76
2023/05/29 02:51:56;;;;;;;;;;;;;;;;;;4946581;28;19922;-78
2023/05/29 02:54:43;;;;;;;;;;;;;;;;;;4957557;28;19926;-76
2023/05/29 02:57:29;;;;;;;;;;;;;;;;;;4952316;28;19965;-76
2023/05/29 03:00:16;;;;;;;;;;;;;;;;;;4934211;28;20382;-75
2023/05/29 03:03:03;;;;;;;;;;;;;;;;;;4938188;28;19922;-75
2023/05/29 03:05:49;;;;;;;;;;;;;;;;;;4933482;28;19934;-76
2023/05/29 03:08:39;;;;;;;;;;;;;;;;;;4939705;28;19922;-76
2023/05/29 03:11:26;;;;;;;;;;;;;;;;;;4942690;28;19923;-76
2023/05/29 03:14:12;;;;;;;;;;;;;;;;;;4939643;28;19925;-76
2023/05/29 03:16:59;;;;;;;;;;;;;;;;;;4932573;28;20938;-76
2023/05/29 03:19:45;;;;;;;;;;;;;;;;;;4947420;28;19984;-75
2023/05/29 03:22:32;;;;;;;;;;;;;;;;;;4950617;28;19929;-75
2023/05/29 03:25:18;;;;;;;;;;;;;;;;;;4950021;28;20274;-75
2023/05/29 03:28:05;;;;;;;;;;;;;;;;;;4958205;28;19926;-76
2023/05/29 03:30:51;;;;;;;;;;;;;;;;;;4957691;28;19977;-77
2023/05/29 03:33:38;;;;;;;;;;;;;;;;;;4957588;28;19928;-77
2023/05/29 03:36:24;;;;;;;;;;;;;;;;;;4958264;28;19922;-74
2023/05/29 03:39:12;;;;;;;;;;;;;;;;;;4964576;28;19918;-77
2023/05/29 03:41:58;;;;;;;;;;;;;;;;;;4965009;28;19922;-75
2023/05/29 03:44:45;;;;;;;;;;;;;;;;;;4949697;28;20390;-76
2023/05/29 03:47:31;;;;;;;;;;;;;;;;;;4964033;28;19922;-74
2023/05/29 03:50:18;;;;;;;;;;;;;;;;;;4960629;28;19929;-75
2023/05/29 03:53:04;;;;;;;;;;;;;;;;;;4965859;28;19914;-75
2023/05/29 03:55:51;;;;;;;;;;;;;;;;;;4973531;28;19944;-76
2023/05/29 03:58:37;;;;;;;;;;;;;;;;;;4961395;28;19918;-76
2023/05/29 04:01:24;;;;;;;;;;;;;;;;;;4948908;28;19919;-77
2023/05/29 04:04:10;;;;;;;;;;;;;;;;;;4960250;28;19915;-75
2023/05/29 04:06:57;;;;;;;;;;;;;;;;;;4966891;28;19941;-77
2023/05/29 04:09:43;;;;;;;;;;;;;;;;;;4972099;28;19933;-76
2023/05/29 04:12:30;;;;;;;;;;;;;;;;;;4955679;28;19919;-78
2023/05/29 04:15:16;;;;;;;;;;;;;;;;;;4967491;28;20412;-78
2023/05/29 04:18:03;;;;;;;;;;;;;;;;;;4963558;28;19922;-77
2023/05/29 04:20:49;;;;;;;;;;;;;;;;;;4959070;28;20305;-79
2023/05/29 04:23:36;;;;;;;;;;;;;;;;;;4961702;28;20200;-77
2023/05/29 04:26:25;;;;;;;;;;;;;;;;;;4969863;28;19934;-77
2023/05/29 04:29:12;;;;;;;;;;;;;;;;;;4951928;28;20275;-77
2023/05/29 04:32:03;;;;;;;;;;;;;;;;;;4967315;28;19922;-76
2023/05/29 04:34:50;;;;;;;;;;;;;;;;;;4962407;28;19941;-77
2023/05/29 04:37:38;;;;;;;;;;;;;;;;;;4958655;28;19929;-76
2023/05/29 04:40:24;;;;;;;;;;;;;;;;;;4968170;28;19932;-76
2023/05/29 04:43:11;;;;;;;;;;;;;;;;;;4964307;28;19924;-77
2023/05/29 04:45:58;;;;;;;;;;;;;;;;;;4951166;28;20151;-76
2023/05/29 04:48:45;;;;;;;;;;;;;;;;;;4961097;28;19925;-77
2023/05/29 04:51:31;;;;;;;;;;;;;;;;;;4966798;28;19928;-77
2023/05/29 04:54:19;;;;;;;;;;;;;;;;;;4954432;28;19926;-76
2023/05/29 04:57:06;;;;;;;;;;;;;;;;;;4967662;28;20377;-76
2023/05/29 04:59:52;;;;;;;;;;;;;;;;;;4959550;28;19918;-76
2023/05/29 05:02:39;;;;;;;;;;;;;;;;;;4954395;28;19937;-76
2023/05/29 05:05:25;;;;;;;;;;;;;;;;;;4954666;28;19932;-77
2023/05/29 05:08:12;;;;;;;;;;;;;;;;;;4959648;28;21277;-76
2023/05/29 05:10:58;;;;;;;;;;;;;;;;;;4960312;28;19929;-77
2023/05/29 05:13:45;;;;;;;;;;;;;;;;;;4956249;28;19919;-77
2023/05/29 05:16:32;;;;;;;;;;;;;;;;;;4961433;28;19942;-77
2023/05/29 05:19:19;;;;;;;;;;;;;;;;;;4960087;28;19918;-76
2023/05/29 05:22:05;;;;;;;;;;;;;;;;;;4956171;28;19930;-76
2023/05/29 05:24:54;;;;;;;;;;;;;;;;;;4956118;28;20787;-77
2023/05/29 05:27:40;;;;;;;;;;;;;;;;;;4952676;28;19928;-76
2023/05/29 05:30:27;;;;;;;;;;;;;;;;;;4961820;28;19929;-76
2023/05/29 05:33:13;;;;;;;;;;;;;;;;;;4956126;28;19933;-76
2023/05/29 05:36:00;;;;;;;;;;;;;;;;;;4967091;28;19926;-76
2023/05/29 05:38:46;;;;;;;;;;;;;;;;;;4962233;28;19917;-75
2023/05/29 05:41:33;;;;;;;;;;;;;;;;;;4964604;28;19918;-74
2023/05/29 05:44:20;;;;;;;;;;;;;;;;;;4961523;28;20405;-74
2023/05/29 05:47:06;;;;;;;;;;;;;;;;;;4966168;28;19925;-75
2023/05/29 05:49:53;;;;;;;;;;;;;;;;;;4958311;28;19941;-76
2023/05/29 05:52:40;;;;;;;;;;;;;;;;;;4972314;28;20444;-76
2023/05/29 05:55:27;;;;;;;;;;;;;;;;;;4961264;28;19918;-75
2023/05/29 05:58:14;;;;;;;;;;;;;;;;;;4958253;28;20155;-75
2023/05/29 06:01:00;;;;;;;;;;;;;;;;;;4972853;28;19929;-74
2023/05/29 06:03:47;;;;;;;;;;;;;;;;;;4963886;28;19926;-75
2023/05/29 06:06:33;;;;;;;;;;;;;;;;;;4958515;28;19957;-76
2023/05/29 06:09:20;;;;;;;;;;;;;;;;;;4963384;28;19919;-74
2023/05/29 06:12:08;;;;;;;;;;;;;;;;;;4960874;28;19918;-75
2023/05/29 06:14:55;;;;;;;;;;;;;;;;;;4948323;28;19930;-75
2023/05/29 06:17:41;;;;;;;;;;;;;;;;;;4955957;28;20470;-75
2023/05/29 06:20:28;;;;;;;;;;;;;;;;;;4961873;28;20002;-78
2023/05/29 06:23:14;;;;;;;;;;;;;;;;;;4952948;28;19925;-77
2023/05/29 06:26:00;;;;;;;;;;;;;;;;;;4956366;28;20385;-78
2023/05/29 06:28:47;;;;;;;;;;;;;;;;;;4955494;28;19929;-78
2023/05/29 06:31:34;;;;;;;;;;;;;;;;;;4955105;28;19928;-79
2023/05/29 06:34:21;;;;;;;;;;;;;;;;;;4957215;28;19927;-77
2023/05/29 06:37:07;;;;;;;;;;;;;;;;;;4962480;28;19922;-80
2023/05/29 06:39:54;;;;;;;;;;;;;;;;;;4952932;28;19929;-79
2023/05/29 06:42:40;;;;;;;;;;;;;;;;;;4959728;28;20409;-79
2023/05/29 06:45:27;;;;;;;;;;;;;;;;;;4949280;28;19926;-79
2023/05/29 06:48:13;;;;;;;;;;;;;;;;;;4956315;28;19922;-79
2023/05/29 06:51:00;;;;;;;;;;;;;;;;;;4949332;28;19922;-79
2023/05/29 06:53:46;;;;;;;;;;;;;;;;;;4961469;28;19945;-79
2023/05/29 06:56:33;;;;;;;;;;;;;;;;;;4967634;28;19921;-79
2023/05/29 06:59:19;;;;;;;;;;;;;;;;;;4953856;28;20309;-79
2023/05/29 07:02:06;;;;;;;;;;;;;;;;;;4956863;28;19922;-79
2023/05/29 07:04:52;;;;;;;;;;;;;;;;;;4964755;28;20421;-79
2023/05/29 07:07:39;;;;;;;;;;;;;;;;;;4954595;28;20375;-79
2023/05/29 07:10:25;;;;;;;;;;;;;;;;;;4966737;28;19922;-78
2023/05/29 07:13:12;;;;;;;;;;;;;;;;;;4958284;28;19922;-78
2023/05/29 07:15:58;;;;;;;;;;;;;;;;;;4952991;28;19930;-79
2023/05/29 07:18:45;;;;;;;;;;;;;;;;;;4951422;28;19918;-79
2023/05/29 07:21:32;;;;;;;;;;;;;;;;;;4960414;28;19949;-77
2023/05/29 07:24:19;;;;;;;;;;;;;;;;;;4961682;28;20305;-78
2023/05/29 07:27:05;;;;;;;;;;;;;;;;;;4960512;28;19934;-78
2023/05/29 07:29:52;;;;;;;;;;;;;;;;;;4964635;28;19922;-79
2023/05/29 07:32:38;;;;;;;;;;;;;;;;;;4964805;28;19924;-79
2023/05/29 07:35:25;;;;;;;;;;;;;;;;;;4963585;28;20395;-78
2023/05/29 07:38:11;;;;;;;;;;;;;;;;;;4964329;28;20392;-77
2023/05/29 07:40:58;;;;;;;;;;;;;;;;;;4957991;28;19923;-78
2023/05/29 07:43:50;;;;;;;;;;;;;;;;;;4954983;28;19922;-78
2023/05/29 07:46:37;;;;;;;;;;;;;;;;;;4947545;28;19930;-78
2023/05/29 07:49:23;;;;;;;;;;;;;;;;;;4961617;28;20973;-78
2023/05/29 07:52:10;;;;;;;;;;;;;;;;;;4960921;28;20447;-78
2023/05/29 07:54:56;;;;;;;;;;;;;;;;;;4971501;28;19918;-77
2023/05/29 07:57:43;;;;;;;;;;;;;;;;;;4962805;28;19923;-77
2023/05/29 08:00:30;;;;;;;;;;;;;;;;;;4960574;28;20283;-78
2023/05/29 08:03:16;;;;;;;;;;;;;;;;;;4950980;28;19930;-78
2023/05/29 08:06:03;;;;;;;;;;;;;;;;;;4966662;28;19930;-79
2023/05/29 08:08:50;;;;;;;;;;;;;;;;;;4960337;28;19928;-79
2023/05/29 08:11:36;;;;;;;;;;;;;;;;;;4961956;28;19922;-80
2023/05/29 08:14:23;;;;;;;;;;;;;;;;;;4960683;28;19923;-79
2023/05/29 08:17:09;;;;;;;;;;;;;;;;;;4957168;28;20453;-79
2023/05/29 08:19:56;;;;;;;;;;;;;;;;;;4959836;28;19918;-79
2023/05/29 08:22:43;;;;;;;;;;;;;;;;;;4960091;28;19948;-77
2023/05/29 08:25:29;;;;;;;;;;;;;;;;;;4963920;28;19953;-78
2023/05/29 08:28:16;;;;;;;;;;;;;;;;;;4966037;28;19924;-78
2023/05/29 08:31:02;;;;;;;;;;;;;;;;;;4954542;28;19914;-79
2023/05/29 08:33:49;;;;;;;;;;;;;;;;;;4962545;28;19926;-78
2023/05/29 08:36:35;;;;;;;;;;;;;;;;;;4959806;28;19918;-77
2023/05/29 08:39:22;;;;;;;;;;;;;;;;;;4956639;28;19929;-77
2023/05/29 08:42:09;;;;;;;;;;;;;;;;;;4959154;28;19919;-77
2023/05/29 08:44:57;;;;;;;;;;;;;;;;;;4960745;28;19933;-79
2023/05/29 08:47:44;;;;;;;;;;;;;;;;;;4965549;28;20334;-77
2023/05/29 08:50:31;;;;;;;;;;;;;;;;;;4962000;28;19922;-78
2023/05/29 08:53:18;;;;;;;;;;;;;;;;;;4951200;28;19918;-79
2023/05/29 08:56:05;;;;;;;;;;;;;;;;;;4963762;28;19919;-78
2023/05/29 08:58:52;;;;;;;;;;;;;;;;;;4946535;28;19933;-78
2023/05/29 09:01:42;;;;;;;;;;;;;;;;;;4946170;28;19938;-80
2023/05/29 09:04:31;;;;;;;;;;;;;;;;;;4959736;28;19918;-78
2023/05/29 09:07:19;;;;;;;;;;;;;;;;;;4959164;28;20416;-78
2023/05/29 09:10:06;;;;;;;;;;;;;;;;;;4959502;28;19918;-79
2023/05/29 09:12:52;;;;;;;;;;;;;;;;;;4954970;28;19922;-78
2023/05/29 09:15:40;;;;;;;;;;;;;;;;;;4948649;28;19927;-77
2023/05/29 09:18:26;;;;;;;;;;;;;;;;;;4959791;28;20382;-78
2023/05/29 09:21:13;;;;;;;;;;;;;;;;;;4952566;28;19933;-78
2023/05/29 09:23:59;;;;;;;;;;;;;;;;;;4960241;28;19933;-77
2023/05/29 09:26:46;;;;;;;;;;;;;;;;;;4963487;28;20609;-78
2023/05/29 09:29:32;;;;;;;;;;;;;;;;;;4960286;28;19929;-77
2023/05/29 09:32:19;;;;;;;;;;;;;;;;;;4960342;28;19922;-78
2023/05/29 09:35:05;;;;;;;;;;;;;;;;;;4956600;28;19922;-77
2023/05/29 09:37:52;;;;;;;;;;;;;;;;;;4965190;28;19933;-77
2023/05/29 09:40:39;;;;;;;;;;;;;;;;;;4960828;28;20310;-78
2023/05/29 09:43:26;;;;;;;;;;;;;;;;;;4959491;28;19937;-78
2023/05/29 09:46:12;;;;;;;;;;;;;;;;;;4962228;28;19923;-77
2023/05/29 09:48:59;;;;;;;;;;;;;;;;;;4959050;28;19928;-78
2023/05/29 09:51:47;;;;;;;;;;;;;;;;;;4970214;28;19925;-79
2023/05/29 09:54:34;;;;;;;;;;;;;;;;;;4951778;28;19932;-78
2023/05/29 09:57:22;;;;;;;;;;;;;;;;;;4958820;28;19918;-78
2023/05/29 10:00:12;;;;;;;;;;;;;;;;;;4962058;28;19929;-77
2023/05/29 10:02:59;;;;;;;;;;;;;;;;;;4960089;28;19918;-78
2023/05/29 10:05:45;;;;;;;;;;;;;;;;;;4960988;28;19936;-78
2023/05/29 10:08:32;;;;;;;;;;;;;;;;;;4954917;28;19926;-78
2023/05/29 10:11:19;;;;;;;;;;;;;;;;;;4962123;28;19922;-79
2023/05/29 10:14:06;;;;;;;;;;;;;;;;;;4957713;28;20378;-77
2023/05/29 10:16:52;;;;;;;;;;;;;;;;;;4947659;28;19929;-77
2023/05/29 10:19:39;;;;;;;;;;;;;;;;;;4961339;28;19929;-78
2023/05/29 10:22:25;;;;;;;;;;;;;;;;;;4959427;28;20397;-79
2023/05/29 10:25:12;;;;;;;;;;;;;;;;;;4957205;28;19934;-81
2023/05/29 10:27:58;;;;;;;;;;;;;;;;;;4963039;28;19929;-77
2023/05/29 10:30:45;;;;;;;;;;;;;;;;;;4951988;28;19918;-77
2023/05/29 10:33:32;;;;;;;;;;;;;;;;;;4954170;28;19918;-77
2023/05/29 10:36:18;;;;;;;;;;;;;;;;;;4962367;28;19926;-77
2023/05/29 10:39:05;;;;;;;;;;;;;;;;;;4959310;28;19918;-77
2023/05/29 10:41:54;;;;;;;;;;;;;;;;;;4959704;28;19918;-77
2023/05/29 10:44:40;;;;;;;;;;;;;;;;;;4954822;28;19926;-78
2023/05/29 10:47:27;;;;;;;;;;;;;;;;;;4931832;28;19929;-76
2023/05/29 10:50:13;;;;;;;;;;;;;;;;;;4933264;28;19922;-78
2023/05/29 10:53:00;;;;;;;;;;;;;;;;;;4941007;28;19933;-77
2023/05/29 10:55:46;;;;;;;;;;;;;;;;;;4954967;28;19937;-78
2023/05/29 10:58:33;;;;;;;;;;;;;;;;;;4938900;28;19940;-78
2023/05/29 11:01:19;;;;;;;;;;;;;;;;;;4941872;28;20582;-78
2023/05/29 11:04:05;;;;;;;;;;;;;;;;;;4946619;28;19930;-77
2023/05/29 11:06:52;;;;;;;;;;;;;;;;;;4947951;28;19926;-77
2023/05/29 11:09:39;;;;;;;;;;;;;;;;;;4946344;28;19923;-78
2023/05/29 11:12:35;;;;;;;;;;;;;;;;;;4944273;28;19922;-77
2023/05/29 11:15:22;;;;;;;;;;;;;;;;;;4943709;28;19922;-78
2023/05/29 11:18:08;;;;;;;;;;;;;;;;;;4952321;28;19958;-77
2023/05/29 11:20:55;;;;;;;;;;;;;;;;;;4964506;28;19956;-78
2023/05/29 11:23:41;;;;;;;;;;;;;;;;;;4956640;28;19918;-78
2023/05/29 11:26:28;;;;;;;;;;;;;;;;;;4968042;28;19930;-78
2023/05/29 11:29:16;;;;;;;;;;;;;;;;;;4966492;28;19925;-79
2023/05/29 11:32:03;;;;;;;;;;;;;;;;;;4964425;28;19922;-79
2023/05/29 11:34:49;;;;;;;;;;;;;;;;;;4962431;28;19922;-77
2023/05/29 11:37:35;;;;;;;;;;;;;;;;;;4964992;28;19926;-78
2023/05/29 11:40:22;;;;;;;;;;;;;;;;;;4962483;28;20364;-78
2023/05/29 11:43:08;;;;;;;;;;;;;;;;;;4967482;28;19929;-79
2023/05/29 11:45:55;;;;;;;;;;;;;;;;;;4967441;28;19922;-79
2023/05/29 11:48:41;;;;;;;;;;;;;;;;;;4957405;28;20460;-78
2023/05/29 11:51:28;;;;;;;;;;;;;;;;;;4953883;28;19941;-78
2023/05/29 11:54:14;;;;;;;;;;;;;;;;;;4964821;28;19934;-78
2023/05/29 11:57:02;;;;;;;;;;;;;;;;;;4950266;28;20021;-78
2023/05/29 11:59:48;;;;;;;;;;;;;;;;;;4965251;28;19922;-78
2023/05/29 12:02:35;;;;;;;;;;;;;;;;;;4956337;28;19926;-78
2023/05/29 12:05:22;;;;;;;;;;;;;;;;;;4973890;28;19931;-78
2023/05/29 12:08:08;;;;;;;;;;;;;;;;;;4967961;28;19925;-79
2023/05/29 12:10:55;;;;;;;;;;;;;;;;;;4969749;28;19926;-79
2023/05/29 12:13:41;;;;;;;;;;;;;;;;;;4961926;28;19918;-79
2023/05/29 12:16:28;;;;;;;;;;;;;;;;;;4961611;28;20599;-79
2023/05/29 12:19:14;;;;;;;;;;;;;;;;;;4963681;28;19968;-78
2023/05/29 12:22:01;;;;;;;;;;;;;;;;;;4965931;28;20329;-78
2023/05/29 12:24:47;;;;;;;;;;;;;;;;;;4964030;28;19922;-78
2023/05/29 12:27:41;;;;;;;;;;;;;;;;;;4966308;28;24374;-77
2023/05/29 12:30:27;;;;;;;;;;;;;;;;;;4959298;28;19922;-78
2023/05/29 12:33:14;;;;;;;;;;;;;;;;;;4960855;28;20711;-78
2023/05/29 12:36:00;;;;;;;;;;;;;;;;;;4966792;28;19933;-81
2023/05/29 12:38:47;;;;;;;;;;;;;;;;;;4959205;28;19928;-82
2023/05/29 12:41:34;;;;;;;;;;;;;;;;;;4957467;28;19929;-78
2023/05/29 12:44:21;;;;;;;;;;;;;;;;;;4968070;28;19926;-78
2023/05/29 12:47:07;;;;;;;;;;;;;;;;;;4963184;28;20404;-77
2023/05/29 12:49:55;;;;;;;;;;;;;;;;;;4958665;28;19929;-78
2023/05/29 12:52:42;;;;;;;;;;;;;;;;;;4957078;28;20404;-79
2023/05/29 12:55:28;;;;;;;;;;;;;;;;;;4962490;28;19953;-78
2023/05/29 12:58:15;;;;;;;;;;;;;;;;;;4944355;28;19937;-77
2023/05/29 13:01:02;;;;;;;;;;;;;;;;;;4955030;28;20326;-78
2023/05/29 13:03:48;;;;;;;;;;;;;;;;;;4962382;28;19930;-77
2023/05/29 13:06:35;;;;;;;;;;;;;;;;;;4957532;28;19938;-77
2023/05/29 13:09:22;;;;;;;;;;;;;;;;;;4955074;28;19918;-78
2023/05/29 13:12:08;;;;;;;;;;;;;;;;;;4956736;28;19926;-77
2023/05/29 13:14:56;;;;;;;;;;;;;;;;;;4955991;28;19918;-77
2023/05/29 13:17:43;;;;;;;;;;;;;;;;;;4960525;28;19929;-78
2023/05/29 13:20:31;;;;;;;;;;;;;;;;;;4963133;28;19922;-78
2023/05/29 13:23:18;;;;;;;;;;;;;;;;;;4960136;28;20302;-77
2023/05/29 13:26:05;;;;;;;;;;;;;;;;;;4946061;28;19934;-80
2023/05/29 13:28:51;;;;;;;;;;;;;;;;;;4961382;28;19968;-79
2023/05/29 13:31:38;;;;;;;;;;;;;;;;;;4967383;28;19918;-79
2023/05/29 13:34:28;;;;;;;;;;;;;;;;;;4959114;28;19922;-78
2023/05/29 13:37:14;;;;;;;;;;;;;;;;;;4970741;28;19922;-78
2023/05/29 13:40:01;;;;;;;;;;;;;;;;;;4968362;28;19933;-78
2023/05/29 13:42:47;;;;;;;;;;;;;;;;;;4944986;28;19925;-78
2023/05/29 13:45:34;;;;;;;;;;;;;;;;;;4950553;28;19923;-77
2023/05/29 13:48:21;;;;;;;;;;;;;;;;;;4964189;28;19933;-76
2023/05/29 13:51:07;;;;;;;;;;;;;;;;;;4958722;28;19929;-79
2023/05/29 13:53:54;;;;;;;;;;;;;;;;;;4959994;28;20623;-80
2023/05/29 13:56:40;;;;;;;;;;;;;;;;;;4967410;28;20370;-78
2023/05/29 13:59:27;;;;;;;;;;;;;;;;;;4966373;28;19924;-79
2023/05/29 14:02:13;;;;;;;;;;;;;;;;;;4959944;28;19918;-78
2023/05/29 14:05:00;;;;;;;;;;;;;;;;;;4955336;28;20761;-79
2023/05/29 14:07:46;;;;;;;;;;;;;;;;;;4955016;28;19950;-79
2023/05/29 14:10:33;;;;;;;;;;;;;;;;;;4961011;28;19929;-79
2023/05/29 14:13:19;;;;;;;;;;;;;;;;;;4960214;28;20606;-78
2023/05/29 14:16:06;;;;;;;;;;;;;;;;;;4963923;28;19927;-78
2023/05/29 14:18:52;;;;;;;;;;;;;;;;;;4963804;28;19920;-77
2023/05/29 14:21:39;;;;;;;;;;;;;;;;;;4950433;28;19929;-79
2023/05/29 14:24:25;;;;;;;;;;;;;;;;;;4958978;28;19922;-79
2023/05/29 14:27:12;;;;;;;;;;;;;;;;;;4960507;28;20342;-79
2023/05/29 14:29:59;;;;;;;;;;;;;;;;;;4954237;28;19921;-78
2023/05/29 14:32:46;;;;;;;;;;;;;;;;;;4959241;28;19937;-78
2023/05/29 14:35:32;;;;;;;;;;;;;;;;;;4963479;28;19925;-79
2023/05/29 14:38:19;;;;;;;;;;;;;;;;;;4962221;28;19918;-79
2023/05/29 14:41:14;;;;;;;;;;;;;;;;;;4940306;28;20313;-79
2023/05/29 14:44:01;;;;;;;;;;;;;;;;;;4958418;28;19926;-77
2023/05/29 14:46:47;;;;;;;;;;;;;;;;;;4959644;28;19930;-77
2023/05/29 14:49:34;;;;;;;;;;;;;;;;;;4960386;28;19918;-82
2023/05/29 14:52:20;;;;;;;;;;;;;;;;;;4953843;28;20396;-79
2023/05/29 14:55:07;;;;;;;;;;;;;;;;;;4955697;28;20404;-80
2023/05/29 14:57:54;;;;;;;;;;;;;;;;;;4940506;28;19947;-78
2023/05/29 15:00:40;;;;;;;;;;;;;;;;;;4955670;28;19924;-79
2023/05/29 15:03:27;;;;;;;;;;;;;;;;;;4948638;28;19923;-78
2023/05/29 15:06:17;;;;;;;;;;;;;;;;;;4957469;28;19929;-79
2023/05/29 15:09:03;;;;;;;;;;;;;;;;;;4961682;28;19918;-78
2023/05/29 15:11:50;;;;;;;;;;;;;;;;;;4956658;28;19968;-78
2023/05/29 15:14:37;;;;;;;;;;;;;;;;;;4953126;28;19914;-79
2023/05/29 15:17:23;;;;;;;;;;;;;;;;;;4963121;28;20266;-77
2023/05/29 15:20:10;;;;;;;;;;;;;;;;;;4962167;28;19938;-78
2023/05/29 15:22:57;;;;;;;;;;;;;;;;;;4958694;28;19953;-78
2023/05/29 15:25:46;;;;;;;;;;;;;;;;;;4945904;28;19941;-79
2023/05/29 15:28:33;;;;;;;;;;;;;;;;;;4951509;28;19922;-79
2023/05/29 15:31:20;;;;;;;;;;;;;;;;;;4953606;28;19919;-79
2023/05/29 15:34:07;;;;;;;;;;;;;;;;;;4945260;28;19922;-79
2023/05/29 15:36:53;;;;;;;;;;;;;;;;;;4944570;28;19929;-79
2023/05/29 15:39:40;;;;;;;;;;;;;;;;;;4941535;28;20417;-79
2023/05/29 15:42:26;;;;;;;;;;;;;;;;;;4943145;28;19923;-79
2023/05/29 15:45:14;;;;;;;;;;;;;;;;;;4949629;28;19922;-79
2023/05/29 15:48:00;;;;;;;;;;;;;;;;;;4958286;28;19930;-79
2023/05/29 15:50:47;;;;;;;;;;;;;;;;;;4952953;28;19922;-79
2023/05/29 15:53:33;;;;;;;;;;;;;;;;;;4957325;28;19928;-79
2023/05/29 15:56:26;;;;;;;;;;;;;;;;;;4945387;28;20389;-78
2023/05/29 15:59:13;;;;;;;;;;;;;;;;;;4964377;28;19960;-78
2023/05/29 16:02:00;;;;;;;;;;;;;;;;;;4948698;28;20128;-79
2023/05/29 16:04:46;;;;;;;;;;;;;;;;;;4962684;28;20298;-79
2023/05/29 16:07:33;;;;;;;;;;;;;;;;;;4959634;28;20755;-79
2023/05/29 16:10:19;;;;;;;;;;;;;;;;;;4959399;28;19925;-79
2023/05/29 16:13:06;;;;;;;;;;;;;;;;;;4966539;28;19922;-80
2023/05/29 16:15:52;;;;;;;;;;;;;;;;;;4963368;28;19927;-79
2023/05/29 16:18:39;;;;;;;;;;;;;;;;;;4960470;28;19914;-79
2023/05/29 16:21:26;;;;;;;;;;;;;;;;;;4965078;28;20012;-79
2023/05/29 16:24:12;;;;;;;;;;;;;;;;;;4966107;28;19929;-80
2023/05/29 16:26:59;;;;;;;;;;;;;;;;;;4943351;28;20812;-79
2023/05/29 16:29:46;;;;;;;;;;;;;;;;;;4935281;28;20306;-79
2023/05/29 16:32:33;;;;;;;;;;;;;;;;;;4935452;28;19922;-78
2023/05/29 16:35:19;;;;;;;;;;;;;;;;;;4923886;28;19923;-79
2023/05/29 16:38:06;;;;;;;;;;;;;;;;;;4946279;28;20589;-79
2023/05/29 16:40:52;;;;;;;;;;;;;;;;;;4943368;28;19933;-79
2023/05/29 16:43:39;;;;;;;;;;;;;;;;;;4931283;28;19933;-78
2023/05/29 16:46:25;;;;;;;;;;;;;;;;;;4941514;28;19933;-78
2023/05/29 16:49:12;;;;;;;;;;;;;;;;;;4929190;29;19923;-78
2023/05/29 16:51:58;;;;;;;;;;;;;;;;;;4940857;29;19922;-78
2023/05/29 16:54:45;;;;;;;;;;;;;;;;;;4936443;28;20345;-78
2023/05/29 16:57:33;;;;;;;;;;;;;;;;;;4929502;28;19923;-77
2023/05/29 17:00:20;;;;;;;;;;;;;;;;;;4944416;28;19925;-77
2023/05/29 17:03:07;;;;;;;;;;;;;;;;;;4945864;28;19926;-79
2023/05/29 17:05:53;;;;;;;;;;;;;;;;;;4924216;28;19926;-77
2023/05/29 17:08:40;;;;;;;;;;;;;;;;;;4914770;29;19923;-78
2023/05/29 17:11:26;;;;;;;;;;;;;;;;;;4921709;29;20358;-77
2023/05/29 17:14:13;;;;;;;;;;;;;;;;;;4916945;29;19923;-78
2023/05/29 17:17:00;;;;;;;;;;;;;;;;;;4934998;29;19929;-77
2023/05/29 17:19:46;;;;;;;;;;;;;;;;;;4915240;29;20418;-80
2023/05/29 17:22:33;;;;;;;;;;;;;;;;;;4938686;28;19923;-79
2023/05/29 17:25:19;;;;;;;;;;;;;;;;;;4934005;28;20500;-79
2023/05/29 17:28:09;;;;;;;;;;;;;;;;;;4959536;28;19926;-77
2023/05/29 17:30:56;;;;;;;;;;;;;;;;;;4966567;28;19930;-77
2023/05/29 17:33:42;;;;;;;;;;;;;;;;;;4965509;28;19932;-77
2023/05/29 17:36:29;;;;;;;;;;;;;;;;;;4950966;28;19922;-76
2023/05/29 17:39:15;;;;;;;;;;;;;;;;;;4959379;28;19927;-77
2023/05/29 17:42:02;;;;;;;;;;;;;;;;;;4960131;28;19922;-77
2023/05/29 17:44:49;;;;;;;;;;;;;;;;;;4951738;28;19922;-77
2023/05/29 17:47:35;;;;;;;;;;;;;;;;;;4944838;28;19930;-78
2023/05/29 17:50:22;;;;;;;;;;;;;;;;;;4937414;28;19927;-77
2023/05/29 17:53:08;;;;;;;;;;;;;;;;;;4940982;28;19926;-78
2023/05/29 17:55:55;;;;;;;;;;;;;;;;;;4952634;28;19922;-80
2023/05/29 17:58:42;;;;;;;;;;;;;;;;;;4958849;28;19922;-77
2023/05/29 18:01:29;;;;;;;;;;;;;;;;;;4949538;28;19918;-78
2023/05/29 18:04:15;;;;;;;;;;;;;;;;;;4942834;28;19922;-78
2023/05/29 18:07:02;;;;;;;;;;;;;;;;;;4937634;28;19931;-76
2023/05/29 18:09:49;;;;;;;;;;;;;;;;;;4963451;28;19926;-77
2023/05/29 18:12:35;;;;;;;;;;;;;;;;;;4938880;29;19926;-76
2023/05/29 18:15:22;;;;;;;;;;;;;;;;;;4939587;28;19921;-77
2023/05/29 18:18:08;;;;;;;;;;;;;;;;;;4935059;28;19915;-77
2023/05/29 18:20:55;;;;;;;;;;;;;;;;;;4942146;28;19929;-77
2023/05/29 18:23:43;;;;;;;;;;;;;;;;;;4947550;28;19922;-75
2023/05/29 18:26:30;;;;;;;;;;;;;;;;;;4938626;29;19930;-77
2023/05/29 18:29:16;;;;;;;;;;;;;;;;;;4929858;28;19918;-77
2023/05/29 18:32:03;;;;;;;;;;;;;;;;;;4943655;28;19927;-76
2023/05/29 18:34:50;;;;;;;;;;;;;;;;;;4937611;28;19918;-77
2023/05/29 18:37:36;;;;;;;;;;;;;;;;;;4933223;28;19933;-78
2023/05/29 18:40:23;;;;;;;;;;;;;;;;;;4933848;28;20366;-78
2023/05/29 18:43:09;;;;;;;;;;;;;;;;;;4944953;28;19926;-78
2023/05/29 18:45:56;;;;;;;;;;;;;;;;;;4944777;28;19927;-79
2023/05/29 18:48:42;;;;;;;;;;;;;;;;;;4930907;29;19923;-76
2023/05/29 18:51:30;;;;;;;;;;;;;;;;;;4941962;28;19918;-76
2023/05/29 18:54:17;;;;;;;;;;;;;;;;;;4941851;28;20305;-76
2023/05/29 18:57:03;;;;;;;;;;;;;;;;;;4944141;28;19927;-77
2023/05/29 18:59:52;;;;;;;;;;;;;;;;;;4938840;28;19923;-76